createdAt,value
2024-03-03T00:02:08.562Z,100436.50
2024-03-03T00:04:55.534Z,100428.50
2024-03-03T00:07:35.892Z,100426.59
2024-03-03T00:10:22.595Z,100421.06
2024-03-03T00:13:02.956Z,100427.34
2024-03-03T00:15:49.549Z,100426.59
2024-03-03T00:18:29.846Z,100424.69
2024-03-03T00:21:16.563Z,100429.91
2024-03-03T00:23:56.896Z,100429.09
2024-03-03T00:26:43.499Z,100416.28
2024-03-03T00:29:24.359Z,100411.34
2024-03-03T00:32:11.502Z,100414.59
2024-03-03T00:34:51.881Z,100416.25
2024-03-03T00:37:38.524Z,100420.59
2024-03-03T00:40:25.518Z,100414.00
2024-03-03T00:43:05.675Z,100417.00
2024-03-03T00:45:52.538Z,100418.31
2024-03-03T00:48:32.590Z,100423.19
2024-03-03T00:51:19.465Z,100418.78
2024-03-03T00:53:59.513Z,100420.84
2024-03-03T00:56:47.458Z,100423.09
2024-03-03T00:59:27.631Z,100421.59
2024-03-03T01:02:14.498Z,100422.44
2024-03-03T01:05:09.466Z,100415.91
2024-03-03T01:07:56.488Z,100420.34
2024-03-03T01:10:36.562Z,100427.91
2024-03-03T01:13:23.537Z,100422.94
2024-03-03T01:16:03.530Z,100419.53
2024-03-03T01:18:50.451Z,100416.56
2024-03-03T01:21:37.529Z,100423.91
2024-03-03T01:24:24.436Z,100416.28
2024-03-03T01:27:11.401Z,100409.72
2024-03-03T01:29:51.881Z,100413.78
2024-03-03T01:32:38.406Z,100414.38
2024-03-03T01:35:18.788Z,100415.34
2024-03-03T01:38:05.393Z,100408.44
2024-03-03T01:40:58.408Z,100413.78
2024-03-03T01:43:38.550Z,100410.66
2024-03-03T01:46:25.480Z,100413.00
2024-03-03T01:49:12.461Z,100422.28
2024-03-03T01:51:53.431Z,100409.41
2024-03-03T01:54:40.366Z,100424.28
2024-03-03T01:57:29.435Z,100410.00
2024-03-03T02:00:22.297Z,100410.59
2024-03-03T02:03:08.512Z,100413.34
2024-03-03T02:05:55.427Z,100416.78
2024-03-03T02:08:43.428Z,100415.63
2024-03-03T02:11:24.345Z,100416.72
2024-03-03T02:14:11.456Z,100420.50
2024-03-03T02:16:51.337Z,100422.59
2024-03-03T02:19:44.477Z,100425.22
2024-03-03T02:22:31.375Z,100417.56
2024-03-03T02:25:11.795Z,100422.38
2024-03-03T02:27:58.377Z,100427.78
2024-03-03T02:30:38.731Z,100428.22
2024-03-03T02:33:25.378Z,100425.69
2024-03-03T02:36:06.057Z,100430.44
2024-03-03T02:38:58.464Z,100437.81
2024-03-03T02:41:38.682Z,100434.78
2024-03-03T02:44:25.310Z,100431.47
2024-03-03T02:47:12.319Z,100442.72
2024-03-03T02:49:59.295Z,100440.41
2024-03-03T02:52:39.668Z,100452.34
2024-03-03T02:55:26.399Z,100451.75
2024-03-03T02:58:13.333Z,100448.94
2024-03-03T03:01:00.303Z,100460.25
2024-03-03T03:03:47.341Z,100453.56
2024-03-03T03:06:34.389Z,100457.47
2024-03-03T03:09:14.235Z,100459.72
2024-03-03T03:11:54.729Z,100452.47
2024-03-03T03:14:41.298Z,100459.56
2024-03-03T03:17:21.962Z,100454.28
2024-03-03T03:20:09.273Z,100459.75
2024-03-03T03:22:49.578Z,100466.19
2024-03-03T03:25:36.295Z,100469.00
2024-03-03T03:28:16.722Z,100470.63
2024-03-03T03:31:03.308Z,100473.59
2024-03-03T03:33:43.865Z,100471.50
2024-03-03T03:36:30.234Z,100484.66
2024-03-03T03:39:17.351Z,100472.03
2024-03-03T03:42:05.228Z,100480.81
2024-03-03T03:44:45.581Z,100484.84
2024-03-03T03:47:32.279Z,100485.81
2024-03-03T04:03:52.407Z,100483.41
2024-03-03T04:06:32.756Z,100480.56
2024-03-03T04:09:20.352Z,100487.03
2024-03-03T04:12:00.796Z,100482.66
2024-03-03T04:14:48.384Z,100474.97
2024-03-03T04:17:35.478Z,100478.16
2024-03-03T04:20:16.343Z,100479.59
2024-03-03T04:22:56.739Z,100469.16
2024-03-03T04:25:43.331Z,100478.84
2024-03-03T04:28:30.338Z,100482.22
2024-03-03T04:31:20.425Z,100478.91
2024-03-03T04:34:07.427Z,100474.63
2024-03-03T04:36:58.388Z,100483.34
2024-03-03T04:39:45.379Z,100487.31
2024-03-03T04:42:32.313Z,100485.81
2024-03-03T04:45:12.787Z,100488.00
2024-03-03T04:47:59.354Z,100490.38
2024-03-03T04:50:39.712Z,100486.31
2024-03-03T04:53:26.289Z,100499.06
2024-03-03T04:56:06.883Z,100494.31
2024-03-03T04:58:53.302Z,100499.75
2024-03-03T05:01:34.636Z,100489.00
2024-03-03T05:04:21.307Z,100492.56
2024-03-03T05:07:01.727Z,100504.56
2024-03-03T05:09:48.303Z,100497.44
2024-03-03T05:12:35.290Z,100499.06
2024-03-03T05:15:22.247Z,100499.06
2024-03-03T05:18:09.380Z,100507.44
2024-03-03T05:20:49.242Z,100515.81
2024-03-03T05:23:29.668Z,100508.84
2024-03-03T05:26:16.293Z,100515.97
2024-03-03T05:28:56.580Z,100521.13
2024-03-03T05:31:49.301Z,100518.47
2024-03-03T05:34:29.764Z,100520.25
2024-03-03T05:37:16.267Z,100511.94
2024-03-03T05:39:56.626Z,100515.34
2024-03-03T05:42:43.276Z,100522.75
2024-03-03T05:45:23.622Z,100529.59
2024-03-03T05:48:10.224Z,100525.59
2024-03-03T05:50:57.243Z,100519.56
2024-03-03T05:53:37.315Z,100532.44
2024-03-03T05:56:24.169Z,100529.25
2024-03-03T05:59:11.199Z,100526.75
2024-03-03T06:01:59.295Z,100530.22
2024-03-03T06:04:46.198Z,100532.44
2024-03-03T06:07:26.631Z,100538.59
2024-03-03T06:10:13.280Z,100538.00
2024-03-03T06:13:00.258Z,100536.53
2024-03-03T06:15:40.390Z,100546.50
2024-03-03T06:18:27.199Z,100551.19
2024-03-03T06:21:08.310Z,100553.59
2024-03-03T06:23:55.183Z,100550.72
2024-03-03T06:26:43.204Z,100559.78
2024-03-03T06:29:23.589Z,100562.56
2024-03-03T06:32:10.168Z,100571.59
2024-03-03T06:34:58.136Z,100571.38
2024-03-03T06:37:38.322Z,100570.63
2024-03-03T06:40:25.277Z,100574.31
2024-03-03T06:43:05.335Z,100573.72
2024-03-03T06:45:52.226Z,100571.25
2024-03-03T06:48:35.198Z,100561.03
2024-03-03T06:51:22.156Z,100574.00
2024-03-03T06:54:02.212Z,100571.88
2024-03-03T06:56:50.158Z,100573.50
2024-03-03T06:59:31.383Z,100575.38
2024-03-03T07:02:18.134Z,100585.00
2024-03-03T07:05:05.168Z,100580.50
2024-03-03T07:07:52.129Z,100577.59
2024-03-03T07:10:32.965Z,100577.91
2024-03-03T07:13:21.257Z,100586.00
2024-03-03T07:16:01.974Z,100580.03
2024-03-03T07:18:49.124Z,100581.53
2024-03-03T07:21:29.224Z,100580.41
2024-03-03T07:24:16.094Z,100583.63
2024-03-03T07:27:03.387Z,100586.56
2024-03-03T07:29:52.109Z,100582.28
2024-03-03T07:32:39.298Z,100586.69
2024-03-03T07:35:27.109Z,100585.56
2024-03-03T07:38:07.113Z,100593.94
2024-03-03T07:40:47.507Z,100584.75
2024-03-03T07:43:36.110Z,100598.22
2024-03-03T07:46:23.278Z,100588.41
2024-03-03T07:49:06.421Z,100581.88
2024-03-03T07:51:53.461Z,100576.16
2024-03-03T07:54:40.241Z,100586.03
2024-03-03T07:57:28.200Z,100581.81
2024-03-03T08:00:08.187Z,100582.88
2024-03-03T08:02:55.252Z,100571.69
2024-03-03T08:05:44.940Z,100582.09
2024-03-03T08:08:27.564Z,100589.13
2024-03-03T08:11:14.215Z,100582.41
2024-03-03T08:13:54.464Z,100585.56
2024-03-03T08:16:42.005Z,100580.13
2024-03-03T08:19:23.105Z,100589.38
2024-03-03T08:22:10.206Z,100587.47
2024-03-03T08:24:57.052Z,100578.75
2024-03-03T08:27:37.158Z,100584.56
2024-03-03T08:30:24.020Z,100580.88
2024-03-03T08:33:04.685Z,100586.34
2024-03-03T08:35:52.036Z,100586.13
2024-03-03T08:38:32.177Z,100575.94
2024-03-03T08:41:18.988Z,100580.78
2024-03-03T08:43:59.283Z,100586.25
2024-03-03T08:46:45.993Z,100589.59
2024-03-03T08:49:26.403Z,100588.75
2024-03-03T08:52:15.982Z,100589.56
2024-03-03T08:55:03.047Z,100588.41
2024-03-03T08:57:50.724Z,100581.31
2024-03-03T09:00:30.957Z,100574.63
2024-03-03T09:03:25.000Z,100577.53
2024-03-03T09:06:05.644Z,100591.59
2024-03-03T09:08:51.968Z,100590.72
2024-03-03T09:11:41.959Z,100588.09
2024-03-03T09:14:22.062Z,100585.72
2024-03-03T09:17:08.919Z,100583.44
2024-03-03T09:19:56.011Z,100583.16
2024-03-03T09:22:37.447Z,100579.03
2024-03-03T09:25:25.075Z,100576.28
2024-03-03T09:28:05.405Z,100583.81
2024-03-03T09:30:51.930Z,100581.25
2024-03-03T09:33:32.411Z,100580.53
2024-03-03T09:36:19.879Z,100585.66
2024-03-03T09:39:00.282Z,100576.44
2024-03-03T09:41:46.933Z,100583.00
2024-03-03T09:44:31.053Z,100580.84
2024-03-03T09:47:18.951Z,100593.84
2024-03-03T09:50:00.328Z,100584.81
2024-03-03T09:52:47.968Z,100589.78
2024-03-03T09:55:37.911Z,100593.78
2024-03-03T09:58:18.067Z,100592.66
2024-03-03T10:01:14.963Z,100589.91
2024-03-03T10:04:02.954Z,100589.66
2024-03-03T10:06:45.116Z,100582.84
2024-03-03T10:09:33.904Z,100594.53
2024-03-03T10:12:27.921Z,100589.06
2024-03-03T10:15:16.925Z,100586.34
2024-03-03T10:17:57.284Z,100592.56
2024-03-03T10:20:43.911Z,100589.69
2024-03-03T10:23:38.883Z,100578.28
2024-03-03T10:26:19.244Z,100579.66
2024-03-03T10:29:23.821Z,100577.09
2024-03-03T10:32:09.903Z,100580.34
2024-03-03T10:35:10.876Z,100560.13
2024-03-03T10:38:00.401Z,100570.16
2024-03-03T10:40:46.913Z,100571.19
2024-03-03T10:43:27.296Z,100571.66
2024-03-03T10:46:13.880Z,100563.47
2024-03-03T10:49:02.853Z,100563.31
2024-03-03T10:51:49.891Z,100561.97
2024-03-03T10:54:36.801Z,100550.47
2024-03-03T10:57:27.875Z,100544.09
2024-03-03T11:00:17.558Z,100552.97
2024-03-03T11:03:05.821Z,100546.13
2024-03-03T11:05:48.088Z,100547.00
2024-03-03T11:08:36.016Z,100544.50
2024-03-03T11:11:30.186Z,100538.88
2024-03-03T11:14:24.809Z,100533.44
2024-03-03T11:17:09.719Z,100528.56
2024-03-03T11:20:00.792Z,100529.06
2024-03-03T11:23:04.837Z,100530.56
2024-03-03T11:26:38.044Z,100515.47
2024-03-03T11:29:28.835Z,100516.03
2024-03-03T11:32:16.833Z,100516.41
2024-03-03T11:34:59.610Z,100527.66
2024-03-03T11:37:46.780Z,100518.50
2024-03-03T11:40:35.846Z,100511.94
2024-03-03T11:43:15.934Z,100510.31
2024-03-03T11:46:04.842Z,100517.09
2024-03-03T11:48:48.992Z,100515.88
2024-03-03T11:51:38.756Z,100521.56
2024-03-03T11:54:27.773Z,100518.66
2024-03-03T11:57:12.535Z,100516.06
2024-03-03T12:00:02.719Z,100510.22
2024-03-03T12:02:57.787Z,100509.94
2024-03-03T12:05:38.396Z,100513.75
2024-03-03T12:08:30.785Z,100506.44
2024-03-03T12:11:15.180Z,100511.97
2024-03-03T12:14:01.817Z,100512.50
2024-03-03T12:16:42.131Z,100507.84
2024-03-03T12:19:28.779Z,100505.31
2024-03-03T12:22:16.775Z,100510.34
2024-03-03T12:25:09.718Z,100504.78
2024-03-03T12:27:55.299Z,100510.78
2024-03-03T12:30:49.726Z,100505.78
2024-03-03T12:33:30.055Z,100509.31
2024-03-03T12:36:16.724Z,100509.28
2024-03-03T12:38:57.105Z,100499.75
2024-03-03T12:41:44.692Z,100505.06
2024-03-03T12:44:26.317Z,100505.50
2024-03-03T12:47:12.684Z,100504.06
2024-03-03T12:49:53.060Z,100500.00
2024-03-03T12:52:39.672Z,100508.31
2024-03-03T12:55:26.297Z,100504.16
2024-03-03T12:58:13.642Z,100509.50
2024-03-03T13:00:54.793Z,100502.84
2024-03-03T13:03:44.742Z,100506.94
2024-03-03T13:06:32.628Z,100527.41
2024-03-03T13:09:21.641Z,100521.75
2024-03-03T13:12:08.648Z,100515.59
2024-03-03T13:14:55.707Z,100512.06
2024-03-03T13:17:42.686Z,100513.63
2024-03-03T13:20:35.157Z,100506.50
2024-03-03T13:23:26.650Z,100515.06
2024-03-03T13:26:06.831Z,100519.78
2024-03-03T13:28:56.655Z,100521.00
2024-03-03T13:31:36.761Z,100513.41
2024-03-03T13:34:23.727Z,100519.38
2024-03-03T13:37:05.087Z,100522.03
2024-03-03T13:39:51.713Z,100517.59
2024-03-03T13:42:31.679Z,100522.47
2024-03-03T13:45:18.696Z,100536.03
2024-03-03T13:47:58.737Z,100534.03
2024-03-03T13:50:47.704Z,100527.78
2024-03-03T13:53:27.711Z,100537.66
2024-03-03T13:56:14.594Z,100527.78
2024-03-03T13:58:54.677Z,100526.03
2024-03-03T14:01:41.677Z,100527.47
2024-03-03T14:04:28.834Z,100521.78
2024-03-03T14:07:10.627Z,100521.59
2024-03-03T14:09:50.976Z,100525.66
2024-03-03T14:12:37.554Z,100520.34
2024-03-03T14:15:24.552Z,100521.78
2024-03-03T14:18:05.117Z,100527.88
2024-03-03T14:20:51.558Z,100521.50
2024-03-03T14:23:31.652Z,100525.81
2024-03-03T14:26:18.559Z,100509.13
2024-03-03T14:28:58.724Z,100523.06
2024-03-03T14:31:45.581Z,100517.28
2024-03-03T14:34:32.613Z,100514.81
2024-03-03T14:37:22.610Z,100511.38
2024-03-03T14:40:03.343Z,100517.75
2024-03-03T14:42:50.583Z,100518.38
2024-03-03T14:45:33.664Z,100514.41
2024-03-03T14:48:20.547Z,100518.69
2024-03-03T14:51:00.647Z,100517.19
2024-03-03T14:53:47.529Z,100517.28
2024-03-03T14:56:27.624Z,100514.72
2024-03-03T14:59:14.566Z,100515.84
2024-03-03T15:01:54.824Z,100519.84
2024-03-03T15:04:41.590Z,100525.25
2024-03-03T15:07:29.505Z,100520.03
2024-03-03T15:10:16.588Z,100525.03
2024-03-03T15:12:56.769Z,100526.47
2024-03-03T15:15:44.458Z,100532.56
2024-03-03T15:18:25.094Z,100527.69
2024-03-03T15:21:13.483Z,100527.06
2024-03-03T15:23:53.918Z,100525.34
2024-03-03T15:26:40.492Z,100527.28
2024-03-03T15:29:20.969Z,100517.19
2024-03-03T15:32:07.453Z,100517.69
2024-03-03T15:34:47.577Z,100521.25
2024-03-03T15:37:34.533Z,100529.09
2024-03-03T15:40:16.073Z,100520.25
2024-03-03T15:43:02.596Z,100531.50
2024-03-03T15:45:44.170Z,100523.78
2024-03-03T15:48:31.415Z,100526.22
2024-03-03T15:51:11.578Z,100528.13
2024-03-03T16:05:47.553Z,100531.22
2024-03-03T16:08:34.698Z,100531.06
2024-03-03T16:11:21.609Z,100535.19
2024-03-03T16:14:20.894Z,100538.06
2024-03-03T16:17:08.586Z,100537.44
2024-03-03T16:19:49.740Z,100550.06
2024-03-03T16:22:36.613Z,100545.91
2024-03-03T16:25:16.894Z,100547.03
2024-03-03T16:28:04.597Z,100546.09
2024-03-03T16:30:51.652Z,100546.16
2024-03-03T16:33:31.553Z,100540.78
2024-03-03T16:36:20.358Z,100548.69
2024-03-03T16:39:00.513Z,100543.22
2024-03-03T16:41:47.506Z,100549.38
2024-03-03T16:44:34.560Z,100548.38
2024-03-03T16:47:14.957Z,100546.75
2024-03-03T16:50:01.552Z,100543.53
2024-03-03T16:52:48.497Z,100552.13
2024-03-03T16:55:28.973Z,100550.91
2024-03-03T16:58:16.516Z,100552.75
2024-03-03T17:01:06.005Z,100549.63
2024-03-03T17:04:00.676Z,100551.44
2024-03-03T17:06:41.854Z,100558.75
2024-03-03T17:09:28.442Z,100560.78
2024-03-03T17:12:15.566Z,100539.63
2024-03-03T17:14:56.025Z,100545.13
2024-03-03T17:17:42.498Z,100545.13
2024-03-03T17:20:22.527Z,100546.84
2024-03-03T17:23:09.473Z,100559.53
2024-03-03T17:25:49.943Z,100548.75
2024-03-03T17:28:36.507Z,100556.66
2024-03-03T17:31:23.516Z,100553.19
2024-03-03T17:34:03.594Z,100554.00
2024-03-03T17:36:50.571Z,100553.09
2024-03-03T17:39:30.583Z,100552.88
2024-03-03T17:42:17.404Z,100559.00
2024-03-03T17:44:57.509Z,100561.88
2024-03-03T17:47:44.491Z,100561.19
2024-03-03T17:50:24.719Z,100564.63
2024-03-03T17:53:14.206Z,100557.75
2024-03-03T17:55:55.049Z,100558.09
2024-03-03T17:58:41.498Z,100558.94
2024-03-03T18:01:21.673Z,100559.63
2024-03-03T18:04:08.461Z,100563.72
2024-03-03T18:06:48.571Z,100564.50
2024-03-03T18:09:35.362Z,100571.03
2024-03-03T18:12:15.529Z,100558.50
2024-03-03T18:15:02.379Z,100567.34
2024-03-03T18:17:44.593Z,100569.34
2024-03-03T18:20:31.424Z,100571.69
2024-03-03T18:23:11.509Z,100572.59
2024-03-03T18:25:58.349Z,100569.28
2024-03-03T18:28:46.352Z,100577.06
2024-03-03T18:31:26.833Z,100579.31
2024-03-03T18:34:13.450Z,100579.44
2024-03-03T18:36:55.557Z,100582.66
2024-03-03T18:39:42.336Z,100589.75
2024-03-03T18:42:29.373Z,100591.56
2024-03-03T18:45:16.384Z,100595.84
2024-03-03T18:48:03.445Z,100592.00
2024-03-03T18:50:50.364Z,100589.09
2024-03-03T18:53:30.740Z,100593.53
2024-03-03T18:56:17.328Z,100592.00
2024-03-03T18:59:04.382Z,100596.53
2024-03-03T19:01:44.551Z,100598.53
2024-03-03T19:04:32.373Z,100593.03
2024-03-03T19:07:19.327Z,100599.56
2024-03-03T19:10:06.515Z,100600.97
2024-03-03T19:12:46.354Z,100600.16
2024-03-03T19:15:26.728Z,100600.16
2024-03-03T19:18:13.325Z,100612.47
2024-03-03T19:21:00.862Z,100603.41
2024-03-03T19:23:40.354Z,100603.53
2024-03-03T19:26:27.446Z,100611.03
2024-03-03T19:29:07.337Z,100607.94
2024-03-03T19:31:47.700Z,100615.81
2024-03-03T19:34:34.737Z,100617.13
2024-03-03T19:37:22.392Z,100607.03
2024-03-03T19:40:03.701Z,100626.47
2024-03-03T19:42:51.668Z,100610.91
2024-03-03T19:45:31.404Z,100609.78
2024-03-03T19:48:18.297Z,100622.53
2024-03-03T19:51:05.484Z,100621.00
2024-03-03T19:53:52.333Z,100623.47
2024-03-03T19:56:32.391Z,100616.00
2024-03-03T19:59:20.242Z,100624.63
2024-03-03T20:02:08.132Z,100615.91
2024-03-03T20:05:05.785Z,100621.81
2024-03-03T20:07:47.484Z,100619.44
2024-03-03T20:10:34.503Z,100622.13
2024-03-03T20:13:21.377Z,100620.53
2024-03-03T20:16:02.290Z,100617.06
2024-03-03T20:18:43.436Z,100609.94
2024-03-03T20:21:30.202Z,100617.81
2024-03-03T20:24:17.952Z,100615.97
2024-03-03T20:26:58.369Z,100621.94
2024-03-03T20:29:38.640Z,100618.41
2024-03-03T20:32:25.192Z,100621.13
2024-03-03T20:35:13.254Z,100613.72
2024-03-03T20:37:53.338Z,100618.31
2024-03-03T20:40:40.250Z,100612.03
2024-03-03T20:43:20.420Z,100621.38
2024-03-03T20:46:07.284Z,100622.16
2024-03-03T20:48:47.256Z,100621.94
2024-03-03T20:51:34.152Z,100619.00
2024-03-03T20:54:23.159Z,100621.44
2024-03-03T20:57:16.186Z,100624.69
2024-03-03T21:00:03.152Z,100617.06
2024-03-03T21:02:50.342Z,100614.69
2024-03-03T21:05:37.166Z,100612.38
2024-03-03T21:08:24.165Z,100616.84
2024-03-03T21:11:11.293Z,100607.63
2024-03-03T21:13:52.125Z,100612.09
2024-03-03T21:16:41.191Z,100610.47
2024-03-03T21:19:21.279Z,100600.50
2024-03-03T21:22:09.229Z,100600.66
2024-03-03T21:24:49.305Z,100600.72
2024-03-03T21:27:36.150Z,100602.16
2024-03-03T21:30:16.274Z,100603.72
2024-03-03T21:33:03.175Z,100605.94
2024-03-03T21:35:50.130Z,100602.59
2024-03-03T21:38:37.181Z,100602.16
2024-03-03T21:41:17.087Z,100603.03
2024-03-03T21:43:57.517Z,100599.41
2024-03-03T21:46:44.274Z,100599.25
2024-03-03T21:49:24.536Z,100600.78
2024-03-03T21:52:11.144Z,100599.91
2024-03-03T21:54:58.156Z,100596.19
2024-03-03T21:57:38.071Z,100593.91
2024-03-03T22:00:25.106Z,100589.75
2024-03-03T22:03:05.148Z,100588.09
2024-03-03T22:05:52.155Z,100592.56
2024-03-03T22:08:39.041Z,100585.69
2024-03-03T22:11:26.277Z,100580.81
2024-03-03T22:14:06.034Z,100585.09
2024-03-03T22:16:47.291Z,100579.44
2024-03-03T22:19:34.217Z,100576.38
2024-03-03T22:22:14.617Z,100579.50
2024-03-03T22:25:03.149Z,100584.31
2024-03-03T22:27:50.065Z,100586.34
2024-03-03T22:30:30.169Z,100574.34
2024-03-03T22:33:17.158Z,100574.88
2024-03-03T22:35:57.172Z,100578.03
2024-03-03T22:38:44.049Z,100586.88
2024-03-03T22:41:24.091Z,100590.13
2024-03-03T22:44:11.005Z,100586.56
2024-03-03T22:46:53.854Z,100584.25
2024-03-03T22:49:42.076Z,100583.66
2024-03-03T22:52:22.144Z,100577.22
2024-03-03T22:55:09.135Z,100579.66
2024-03-03T22:57:56.024Z,100581.19
2024-03-03T23:00:46.026Z,100576.94
2024-03-03T23:03:26.070Z,100580.25
2024-03-03T23:06:15.995Z,100576.19
2024-03-03T23:09:02.990Z,100578.56
2024-03-03T23:11:50.047Z,100577.22
2024-03-03T23:14:30.093Z,100585.66
2024-03-03T23:17:16.973Z,100590.75
2024-03-03T23:19:57.037Z,100578.44
2024-03-03T23:22:43.972Z,100583.22
2024-03-03T23:25:24.224Z,100582.84
2024-03-03T23:28:11.039Z,100576.53
2024-03-03T23:30:51.121Z,100571.03
2024-03-03T23:33:38.001Z,100569.72
2024-03-03T23:36:21.076Z,100565.53
2024-03-03T23:39:07.972Z,100566.88
2024-03-03T23:41:48.003Z,100567.13
2024-03-03T23:44:35.005Z,100568.34
2024-03-03T23:47:22.994Z,100561.63
2024-03-03T23:50:11.982Z,100559.94
2024-03-03T23:52:54.067Z,100559.66
2024-03-03T23:55:41.964Z,100558.81
2024-03-03T23:58:22.108Z,100561.47
